Andrej Kasalo

Chefscout - Dinamo Zagreb
2 Mär 2028
Donnerstag
Verarbeitung

Persönlichkeit

Anpassungsfähigkeit (1) Ehrgeiz (2) Kontroverse (2) Loyalität (14) Druck (4) Professionalität (8) Fairness (2) Temperament (13)

Profil

Trainerstil Demokratisch
Lizenz Kontinentale Pro
Entschlossenheit 7
Menschenführung 14
Motivation 6
Disziplin 9
Arbeitszufriedenheit
30%
Ermüdung
0%
Rolle Chefscout
Gehalt 16.7K p/W
Vertrag 14.03.2030

Leistung

Verhalten Gut
Trainingseffektivität
16%
Spielerentwicklung
25%
Verletzungsprävention
30%
Taktische Umsetzung
55%

Letzte Ereignisse

Nimmt an Fortbildung teil 42T her
Nahm an einer Scouting-Besprechung teil 42T her
Nimmt an Fortbildung teil 42T her
Nimmt an Fortbildung teil 42T her
Nimmt an Fortbildung teil 42T her
Nahm an einer Scouting-Besprechung teil 49T her
Nimmt an Fortbildung teil 49T her
Nimmt an Fortbildung teil 49T her

Aktuell beobachtet

116
Spieler Verein Status Fähigkeit Vertrauen Beobachtet Zuletzt beobachtet Letzte Stimme
Marezi Portsmouth Aktiv 118 / 121 40% 1 01.01.2028 -
Alexis Cuello San Lorenzo Aktiv 131 / 121 40% 2 31.08.2027 -
Toni Fruk HNK Rijeka Aktiv 139 / 131 40% 1 31.08.2027 -
Alejo Dramisino Atlanta Aktiv 112 / 121 40% 1 31.08.2027 -
Franco Ibarra Rosario Central Aktiv 125 / 133 40% 1 30.08.2027 -
Lautaro Guzmán Newell's Old Boys Aktiv 124 / 129 40% 1 28.08.2027 -
Imran Oulad Omar Dinamo Batumi Aktiv 130 / 115 40% 1 28.08.2027 -
Araphat Mohammed Ashanti Gold Aktiv 111 / 104 40% 1 27.08.2027 -
Vicente Poggi Godoy Cruz Aktiv 121 / 121 40% 1 26.08.2027 -
Juan Camilo Pérez Carabobo Aktiv 129 / 119 40% 1 25.08.2027 -
Billal Messaoudi JS Kabylie Aktiv 140 / 111 40% 2 23.08.2027 -
Aldo Florenzi Cosenza Aktiv 112 / 128 40% 1 19.08.2027 -
Giacomo Olzer Pescara Aktiv 127 / 124 40% 1 19.08.2027 -
Giovanni Bruzzaniti Catania Aktiv 109 / 121 40% 1 15.08.2027 -
Dany Mota Monza Aktiv 142 / 137 40% 3 13.08.2027 -
Giuseppe Pezzella Cremonese Aktiv 127 / 140 40% 1 13.08.2027 -
Jesús Vázquez Valencia Aktiv 133 / 141 40% 1 13.08.2027 -
David Okereke Cremonese Aktiv 121 / 126 40% 1 11.08.2027 -
Ethan Williams Peterborough United Aktiv 112 / 122 40% 3 09.08.2027 -
Bobby Clark Derby County Aktiv 121 / 127 40% 1 09.08.2027 -
Aaron Connolly Leyton Orient Aktiv 126 / 124 40% 1 08.08.2027 -
George Earthy Reading Aktiv 115 / 128 40% 4 07.08.2027 -
Callum Lang Preston Aktiv 128 / 119 40% 1 07.08.2027 -
Aune Heggebø West Bromwich Albion Aktiv 138 / 136 40% 1 07.08.2027 -
Harry Clarke Preston Aktiv 138 / 126 40% 1 04.08.2027 -
Lorenzo Colombo Genoa Aktiv 132 / 138 40% 1 02.08.2027 -
Florentino Luís Ipswich Town Aktiv 149 / 149 40% 1 02.08.2027 -
Abu Kamara Portsmouth Aktiv 114 / 119 40% 1 01.08.2027 -
Koki Saito Queens Park Rangers Aktiv 123 / 124 40% 1 31.07.2027 -
Tyreece Campbell Charlton Athletic Aktiv 121 / 126 40% 1 31.07.2027 -
Lukas Nmecha Leeds United Aktiv 143 / 133 40% 1 30.07.2027 -
Luca Moro Padova Aktiv 122 / 124 40% 1 30.07.2027 -
Dom Ballard Leyton Orient Aktiv 114 / 125 40% 1 28.07.2027 -
Keinan Davis Udinese Aktiv 136 / 136 40% 1 28.07.2027 -
Bongani Kekana SuperSport United Aktiv 140 / 141 40% 1 28.07.2027 -
Elijah Adebayo Luton Town Aktiv 137 / 120 40% 2 26.07.2027 -
Anis Mehmeti Ipswich Town Aktiv 125 / 140 40% 1 25.07.2027 -
Cian Ashford Cardiff City Aktiv 117 / 127 40% 1 25.07.2027 -
Todd Cantwell Blackburn Rovers Aktiv 136 / 132 40% 2 22.07.2027 -
Jayden Nelson Bolton Wanderers Aktiv 127 / 124 40% 1 22.07.2027 -
Stiven Shpendi Empoli Aktiv 119 / 122 40% 3 21.07.2027 -
Othmane Maamma Watford Aktiv 127 / 136 40% 1 21.07.2027 -
Isaak Davies Cardiff City Aktiv 110 / 118 40% 1 20.07.2027 -
Matheus Davó Maccabi Netanya Aktiv 122 / 111 40% 1 19.07.2027 -
Sam Bell Bristol City Aktiv 114 / 125 40% 4 18.07.2027 -
Alex Lowry Wycombe Wanderers Aktiv 120 / 126 40% 2 18.07.2027 -
Lewis Bate Stockport County Aktiv 122 / 129 40% 5 16.07.2027 -
Kanya Fujimoto Birmingham Aktiv 130 / 124 40% 1 13.07.2027 -
Tammer Kumar West Bromwich Albion Aktiv 122 / 129 40% 2 09.07.2027 -
Sipho Mbule Asante Kotoko Aktiv 125 / 112 40% 1 09.07.2027 -
Leighton Clarkson Blackpool Aktiv 109 / 124 40% 1 06.07.2027 -
Ryan Oné Sheffield United Aktiv 117 / 121 40% 2 02.07.2027 -
Louie Barry Sheffield Wednesday Aktiv 125 / 121 40% 1 30.06.2027 -
Leonardo Sernicola Benevento Aktiv 122 / 116 40% 2 28.06.2027 -
Adam Randell Bristol City Aktiv 129 / 133 40% 1 26.06.2027 -
Giuseppe Di Serio Spezia Aktiv 130 / 121 40% 1 26.06.2027 -
Edoardo Soleri Sampdoria Aktiv 125 / 115 40% 1 25.06.2027 -
Pedro Mendes Modena Aktiv 128 / 122 40% 1 25.06.2027 -
Daniel Paraschiv Bnei Sakhnin Aktiv 132 / 125 40% 1 24.06.2027 -
Chinedu Geoffrey Krylya Sovetov Aktiv 118 / 120 40% 1 24.06.2027 -
Ra'ees Bangura-Williams Millwall Aktiv 126 / 122 40% 2 22.06.2027 -
Mathias Kvistgaarden Norwich City Aktiv 123 / 119 40% 3 21.06.2027 -
Emanuele Adamo Spezia Aktiv 131 / 125 40% 1 19.06.2027 -
Ryan Longman Wrexham Aktiv 117 / 124 40% 1 18.06.2027 -
Ross McCrorie Bristol City Aktiv 126 / 121 40% 1 13.06.2027 -
Marc Bola Watford Aktiv 122 / 122 40% 1 13.06.2027 -
Jérémy Le Douaron Palermo Aktiv 125 / 123 40% 1 12.06.2027 -
Cameron Pring Bristol City Aktiv 130 / 124 40% 2 11.06.2027 -
Gorka Gorosabel Real Sociedad Aktiv 110 / 117 40% 1 05.06.2027 -
Marcus McGuane Huddersfield Town Aktiv 118 / 121 40% 3 04.06.2027 -
Sonny Carey Charlton Athletic Aktiv 109 / 125 40% 1 02.06.2027 -
Marlon Gomes Shakhtar Aktiv 135 / 139 40% 3 31.01.2027 -
Emam Ashour Al Ahly Aktiv 134 / 138 40% 2 31.01.2027 -
Mohamed Ali Ben Romdhane Al Ahly Aktiv 128 / 129 40% 1 30.01.2027 -
Victor Parada Spartak Moscow Aktiv 130 / 126 40% 2 29.01.2027 -
Oleksandr Zinchenko Dynamo Kyiv Aktiv 162 / 149 40% 1 28.01.2027 -
Ryan Wintle Milton Keynes Dons Aktiv 111 / 112 40% 1 28.01.2027 -
Lindon Emërllahu Polissia Aktiv 113 / 115 40% 1 27.01.2027 -
Fashion Sakala Al-Fayha Verloren 140 / 119 40% 1 26.01.2027 -
Pedro Henrique Shakhtar Aktiv 134 / 133 40% 1 26.01.2027 -
Volodymyr Brazhko Dynamo Kyiv Aktiv 120 / 127 40% 1 26.01.2027 -
Joe Rankin-Costello Charlton Athletic Aktiv 114 / 123 40% 1 25.01.2027 -
Rob Dickie Bristol City Aktiv 130 / 120 40% 1 25.01.2027 -
Danil Glebov Dinamo Moscow Aktiv 129 / 130 40% 1 23.01.2027 -
James Morris Leyton Orient Aktiv 109 / 109 40% 1 22.01.2027 -
Tomislav Budimir Zadar Aktiv 125 / 129 40% 1 22.01.2027 -
Patrick Maswanganyi Orlando Pirates Aktiv 100 / 122 40% 1 21.01.2027 -
Will Fish Cardiff City Aktiv 115 / 124 40% 2 20.01.2027 -
Kellen Fisher Norwich City Aktiv 127 / 128 40% 2 20.01.2027 -
Gedson Fernandes Spartak Moscow Aktiv 145 / 141 40% 1 17.01.2027 -
Stephen Eustáquio Swansea City Aktiv 141 / 137 40% 1 17.01.2027 -
Cameron Brannagan Oxford United Aktiv 128 / 118 40% 2 16.01.2027 -
Victor Kristiansen Leicester City Aktiv 116 / 125 40% 1 15.01.2027 -
Ciaron Brown Oxford United Aktiv 110 / 113 40% 1 13.01.2027 -
Radinio Balker Huddersfield Town Aktiv 118 / 118 40% 1 12.01.2027 -
Ante Erceg HNK Gorica Aktiv 103 / 106 55% 1 11.01.2027 -
Zvonimir Šarlija Ujpest Aktiv 124 / 123 40% 1 11.01.2027 -
Brad Hills Stockport County Aktiv 113 / 125 40% 1 11.01.2027 -
Atsuki Ito Bolton Wanderers Aktiv 131 / 124 40% 1 10.01.2027 -
Davis Keillor-Dunn Wrexham Aktiv 120 / 111 40% 1 08.01.2027 -
Aaron Morley Wycombe Wanderers Aktiv 123 / 120 40% 1 06.01.2027 -
Facundo Kruspzky Al Wahda Aktiv 113 / 115 40% 1 05.01.2027 -
Idris El Mizouni Leyton Orient Aktiv 108 / 111 40% 1 02.01.2027 -
Rodrigo Morínigo Libertad Aktiv 107 / 119 40% 1 24.08.2026 -
Maren Haile-Selassie Chicago Fire Aktiv 135 / 125 40% 1 22.08.2026 -
Facundo Torres Austin FC Aktiv 120 / 141 40% 1 22.08.2026 -
Gabriel Pirani San Diego Football Club Aktiv 140 / 134 40% 2 16.08.2026 -
Martín Ojeda Orlando City Aktiv 137 / 137 40% 4 13.08.2026 -
Dániel Gazdag Columbus Crew Aktiv 121 / 131 40% 1 13.08.2026 -
Pedro de la Vega Seattle Sounders Aktiv 143 / 139 40% 1 12.08.2026 -
Jesus Ferreira Seattle Sounders Aktiv 115 / 135 40% 1 09.08.2026 -
Youssef Maziz Colorado Rapids Aktiv 124 / 119 40% 1 09.08.2026 -
Mattéo Guendouzi Fenerbahce Aktiv 163 / 147 40% 1 04.08.2026 -
Niklas Dorsch Toronto FC Aktiv 146 / 123 40% 1 04.08.2026 -
Alexander Nübel Besiktas Aktiv 150 / 144 40% 1 03.08.2026 -
Alex Meret Napoli Aktiv 148 / 156 40% 1 01.08.2026 -